Weather observations for the past three days for
Terre Haute Regional Airport
Metric (Imperial)
Date Time (edt) Wind (kph) Vis. (km) Weather Sky Cond. Temperature (ºC) Relative Humidity Wind Chill (°C) Heat Index (°C) Pressure Precipitation (cm)
Air Dwpt 6 hour altimeter (cm) sea level (mb) 1 hr 3 hr 6 hr
Max. Min.
05 00:53 Calm 16.09 Fair CLR 23.9 23.9 100% 22 76.05 1013.1
04 23:53 Calm 16.09 Fair CLR 24.4 24.4 100% 24 76.05 1013.3
04 22:53 Calm 16.09 Fair CLR 25 24.4 96% 25 76.05 1013.3
04 21:53 N 6 16.09 Fair CLR 25.6 24.4 93% 27 76.05 1013.2
04 20:53 Calm 16.09 Fair CLR 26.1 24.4 90% 28 76 1012.7
04 19:53 Calm 16.09 Fair CLR 32.2 23.9 36.1 32.2 62% 38 75.97 1012.3
04 18:53 S 9 16.09 Fair CLR 34.4 22.8 51% 40 75.97 1012.3
04 17:53 S 11 16.09 Fair CLR 35 22.8 49% 40 76 1012.6
04 16:53 SW 9 16.09 Fair CLR 35.6 22.2 46% 40 76.05 1013.1
04 15:53 SW 11 16.09 Fair CLR 36.1 22.8 46% 42 76.1 1013.8
04 14:53 Vrbl 7 16.09 Fair CLR 35 22.8 49% 40 76.17 1014.8
04 13:53 NW 7 16.09 Fair CLR 34.4 22.8 35 22.8 51% 40 76.23 1015.4
04 12:53 NW 7 16.09 Fair CLR 33.9 23.3 54% 40 76.25 1015.8
04 11:53 W 9 16.09 Fair CLR 32.8 23.3 57% 38 76.25 1015.8
04 10:53 SW 11 16.09 Fair CLR 31.7 23.3 61% 37 76.23 1015.4
04 09:53 SW 9 16.09 Fair CLR 29.4 23.3 70% 34 76.23 1015.5
04 08:53 Calm 16.09 Fair CLR 26.1 23.3 85% 28 76.23 1015.5
04 07:53 Calm 16.09 Fair CLR 22.2 22.2 24.4 21.7 100% 76.17 1014.8
04 06:53 Calm 14.48 Fair CLR 21.7 21.7 100% 76.15 1014.7
04 05:53 Calm 16.09 Fair CLR 22.2 22.2 100% 76.15 1014.5
04 04:53 Calm 16.09 Fair CLR 22.8 22.2 96% 76.12 1014.2
04 03:53 Calm 16.09 Fair CLR 22.8 22.8 100% 76.12 1014.1
04 02:53 Calm 16.09 A Few Clouds FEW100 23.3 22.8 97% 76.15 1014.4
04 01:53 Calm 16.09 Fair CLR 23.9 22.8 31.1 23.9 94% 23 76.15 1014.6
04 00:53 Calm 16.09 Fair CLR 25.6 23.3 87% 27 76.15 1014.4
03 23:53 Calm 16.09 A Few Clouds FEW075 25.6 23.3 87% 27 76.12 1014.2
03 22:53 Calm 16.09 Fair CLR 25.6 24.4 93% 27 76.12 1014.2
03 21:53 Calm 16.09 Fair CLR 26.1 25 94% 28 76.1 1013.9
03 20:53 Calm 16.09 Fair CLR 27.8 25 85% 32 76.07 1013.6
03 19:53 Calm 16.09 Fair CLR 30 26.1 36.1 30 80% 38 76.05 1013.3
03 18:53 S 6 16.09 Fair CLR 34.4 22.2 49% 39 76.05 1013.1
03 17:53 SW 11 16.09 Fair CLR 35.6 21.7 44% 40 76.05 1013.1
03 16:53 SW 11 16.09 Partly Cloudy SCT060 35.6 21.7 44% 40 76.07 1013.4
03 15:53 S 13 16.09 A Few Clouds FEW070 35.6 22.2 46% 40 76.1 1014.0
03 14:53 W 9 16.09 Fair CLR 35.6 22.8 48% 41 76.15 1014.7
03 13:53 W 15 16.09 Fair CLR 35 22.2 35 22.2 47% 40 76.17 1015.0
03 11:53 SW 13 16.09 Fair CLR 32.8 23.3 57% 38 76.25 1016.0
03 10:53 SW 13 16.09 Fair CLR 30.6 23.3 65% 35 76.25 1015.8
03 09:53 SW 9 16.09 Fair CLR 28.9 22.8 70% 32 76.25 1016.0
03 08:53 Calm 16.09 Fair CLR 26.1 22.8 82% 28 76.28 1016.4
03 07:53 Calm 16.09 Fair CLR 22.2 21.7 24.4 21.7 97% 76.28 1016.3
03 06:53 Calm 16.09 Fair CLR 21.7 21.7 100% 76.25 1015.8
03 05:53 Calm 16.09 Fair CLR 22.2 21.7 97% 76.23 1015.6
03 04:53 Calm 16.09 Fair CLR 22.2 21.7 97% 76.23 1015.5
03 03:53 SE 6 16.09 Fair CLR 22.8 21.7 94% 76.2 1015.4
03 02:53 Calm 16.09 Fair CLR 23.9 21.7 88% 24 76.2 1015.4
03 01:53 Calm 16.09 Fair CLR 24.4 21.7 31.7 23.9 85% 25 76.23 1015.4
03 00:53 S 6 16.09 Fair CLR 24.4 22.8 91% 24 76.17 1015.0
02 23:53 Calm 16.09 Fair CLR 24.4 23.9 97% 24 76.17 1014.8
02 22:53 Calm 16.09 Partly Cloudy SCT085 26.1 24.4 90% 28 76.17 1014.9
02 21:53 Calm 16.09 Mostly Cloudy BKN085 26.7 25.6 94% 30 76.15 1014.7
02 20:53 Calm 16.09 A Few Clouds FEW075 27.2 25.6 91% 31 76.12 1014.3
02 19:53 S 7 16.09 Fair CLR 31.7 25 35.6 31.7 68% 39 76.12 1014.2
02 18:53 S 7 16.09 A Few Clouds FEW070 33.9 23.9 56% 40 76.12 1014.2
02 17:53 S 7 16.09 Mostly Cloudy SCT070 BKN085 BKN110 33.3 23.9 58% 39 76.15 1014.5
02 16:53 SW 11 16.09 Fair CLR 35 22.2 47% 40 76.17 1014.8
02 15:53 SW 7 16.09 A Few Clouds FEW065 35.6 22.2 46% 40 76.2 1015.4
02 14:53 SW 15 16.09 Fair CLR 35.6 22.2 46% 40 76.25 1015.9
02 13:53 W 19 16.09 Fair CLR 34.4 22.8 34.4 22.2 51% 40 76.28 1016.2
02 12:53 W 20 16.09 Fair CLR 33.3 22.8 54% 38 76.33 1016.8
02 11:53 SW 13 16.09 Fair CLR 32.2 23.3 59% 37 76.33 1017.0
02 10:53 SW 15 16.09 Fair CLR 30.6 23.9 67% 36 76.33 1017.0
02 09:53 SW 9 16.09 Fair CLR 28.3 22.8 72% 32 76.35 1017.2
02 08:53 S 6 16.09 Fair CLR 25.6 22.8 85% 27 76.35 1017.4
02 07:53 SE 6 14.48 Fair CLR 22.2 21.1 23.9 21.1 94% 76.35 1017.4
02 06:53 Calm 16.09 Fair CLR 21.7 21.1 96% 76.33 1017.0
02 05:53 SE 6 16.09 Fair CLR 22.2 21.1 94% 76.3 1016.5
02 04:53 Calm 16.09 Fair CLR 22.2 21.1 94% 76.28 1016.4
02 03:53 Calm 16.09 Fair CLR 22.8 21.7 94% 76.28 1016.2
02 02:53 Calm 16.09 Fair CLR 22.2 22.2 100% 76.28 1016.2
02 01:53 Calm 16.09 Fair CLR 23.9 22.2 30.6 23.3 90% 23 76.28 1016.1
Date Time (edt) Wind (kph) Vis. (km) Weather Sky Cond. Air Dwpt Max. Min. Relative Humidity Wind Chill (°C) Heat Index (°C) altimeter (cm) sea level (mb) 1 hr 3 hr 6 hr
6 hour
Temperature (ºC) Pressure Precipitation (cm)